createdAt,value
2023-01-23T00:00:47.413Z,97173.28
2023-01-23T00:01:49.800Z,97170.31
2023-01-23T00:02:51.357Z,97176.56
2023-01-23T00:03:54.340Z,97173.97
2023-01-23T00:04:55.949Z,97174.97
2023-01-23T00:06:02.433Z,97171.69
2023-01-23T00:07:03.977Z,97177.00
2023-01-23T00:08:05.811Z,97176.25
2023-01-23T00:09:08.281Z,97179.06
2023-01-23T00:10:10.829Z,97181.44
2023-01-23T00:11:16.095Z,97187.94
2023-01-23T00:12:17.605Z,97184.16
2023-01-23T00:13:19.158Z,97181.84
2023-01-23T00:14:20.779Z,97190.91
2023-01-23T00:15:22.302Z,97185.59
2023-01-23T00:16:26.314Z,97195.34
2023-01-23T00:17:27.964Z,97187.72
2023-01-23T00:18:29.480Z,97189.16
2023-01-23T00:19:30.968Z,97186.09
2023-01-23T00:20:32.495Z,97191.91
2023-01-23T00:21:34.079Z,97189.75
2023-01-23T00:22:35.679Z,97185.38
2023-01-23T00:23:38.176Z,97186.16
2023-01-23T00:24:39.762Z,97186.56
2023-01-23T00:25:41.332Z,97185.19
2023-01-23T00:26:43.038Z,97184.91
2023-01-23T00:27:44.533Z,97185.09
2023-01-23T00:28:47.412Z,97193.94
2023-01-23T00:29:49.122Z,97189.44
2023-01-23T00:30:50.729Z,97196.81
2023-01-23T00:31:52.360Z,97203.84
2023-01-23T00:32:54.193Z,97202.47
2023-01-23T00:34:01.391Z,97194.16
2023-01-23T00:35:04.092Z,97196.41
2023-01-23T00:36:06.185Z,97195.34
2023-01-23T00:37:07.767Z,97186.69
2023-01-23T00:38:09.339Z,97192.41
2023-01-23T00:39:19.680Z,97201.09
2023-01-23T00:40:21.776Z,97209.22
2023-01-23T00:41:24.472Z,97198.00
2023-01-23T00:42:26.045Z,97197.91
2023-01-23T00:43:27.699Z,97192.56
2023-01-23T00:44:30.865Z,97193.38
2023-01-23T00:45:32.438Z,97198.91
2023-01-23T00:46:35.005Z,97200.66
2023-01-23T00:47:36.678Z,97198.22
2023-01-23T00:48:38.267Z,97196.81
2023-01-23T00:49:39.832Z,97194.53
2023-01-23T00:50:41.432Z,97196.63
2023-01-23T00:51:42.996Z,97197.09
2023-01-23T00:52:44.538Z,97207.53
2023-01-23T00:53:46.154Z,97200.75
2023-01-23T00:54:47.671Z,97211.31
2023-01-23T00:55:49.217Z,97213.19
2023-01-23T00:56:50.784Z,97198.66
2023-01-23T00:57:52.453Z,97197.50
2023-01-23T00:58:54.107Z,97195.09
2023-01-23T00:59:55.612Z,97203.25
2023-01-23T01:00:57.166Z,97200.25
2023-01-23T01:01:58.772Z,97203.63
2023-01-23T01:03:00.430Z,97195.00
2023-01-23T01:04:02.049Z,97205.06
2023-01-23T01:05:03.681Z,97214.91
2023-01-23T01:06:05.846Z,97205.22
2023-01-23T01:07:07.375Z,97209.84
2023-01-23T01:08:08.946Z,97216.75
2023-01-23T01:09:10.556Z,97216.44
2023-01-23T01:10:12.453Z,97213.13
2023-01-23T01:11:14.300Z,97205.78
2023-01-23T01:12:16.492Z,97213.56
2023-01-23T01:13:21.440Z,97198.13
2023-01-23T01:14:23.025Z,97192.47
2023-01-23T01:15:25.124Z,97205.63
2023-01-23T01:16:26.896Z,97208.41
2023-01-23T01:17:28.826Z,97197.56
2023-01-23T01:18:30.645Z,97195.50
2023-01-23T01:19:32.183Z,97211.97
2023-01-23T01:20:33.707Z,97197.97
2023-01-23T01:21:35.914Z,97203.22
2023-01-23T01:22:37.462Z,97213.72
2023-01-23T01:23:40.397Z,97215.16
2023-01-23T01:24:42.568Z,97204.28
2023-01-23T01:25:44.701Z,97201.78
2023-01-23T01:26:46.313Z,97205.31
2023-01-23T01:27:48.195Z,97211.84
2023-01-23T01:28:49.842Z,97212.13
2023-01-23T01:29:51.510Z,97197.97
2023-01-23T01:30:53.150Z,97207.47
2023-01-23T01:31:54.805Z,97205.38
2023-01-23T01:32:57.340Z,97210.69
2023-01-23T01:33:58.870Z,97205.59
2023-01-23T01:35:00.392Z,97206.72
2023-01-23T01:36:02.366Z,97205.81
2023-01-23T01:37:03.944Z,97209.31
2023-01-23T01:38:05.490Z,97207.50
2023-01-23T01:39:07.302Z,97201.72
2023-01-23T01:40:15.635Z,97204.22
2023-01-23T01:41:18.017Z,97211.13
2023-01-23T01:42:19.559Z,97225.69
2023-01-23T01:43:24.757Z,97217.94
2023-01-23T01:44:26.395Z,97218.34
2023-01-23T01:46:08.528Z,97223.09
2023-01-23T01:47:15.909Z,97214.44
2023-01-23T01:48:21.584Z,97210.03
2023-01-23T01:49:33.522Z,97216.28
2023-01-23T01:50:35.421Z,97219.09
2023-01-23T01:51:39.827Z,97209.66
2023-01-23T01:52:41.402Z,97210.13
2023-01-23T01:53:46.619Z,97214.97
2023-01-23T01:55:02.840Z,97210.84
2023-01-23T01:56:05.659Z,97218.13
2023-01-23T01:57:27.250Z,97209.47
2023-01-23T01:58:29.677Z,97208.59
2023-01-23T01:59:35.758Z,97212.25
2023-01-23T02:00:37.356Z,97222.88
2023-01-23T02:01:40.826Z,97224.75
2023-01-23T02:02:51.109Z,97226.22
2023-01-23T02:03:54.983Z,97212.81
2023-01-23T02:05:15.700Z,97219.34
2023-01-23T02:06:17.989Z,97214.72
2023-01-23T02:07:27.772Z,97213.81
2023-01-23T02:08:50.794Z,97214.22
2023-01-23T02:09:52.791Z,97208.72
2023-01-23T02:10:54.849Z,97203.28
2023-01-23T02:11:56.449Z,97203.97
2023-01-23T02:13:31.201Z,97200.78
2023-01-23T02:14:33.053Z,97200.78
2023-01-23T02:15:41.616Z,97201.88
2023-01-23T02:16:50.189Z,97193.91
2023-01-23T02:17:54.770Z,97189.31
2023-01-23T02:19:01.055Z,97200.31
2023-01-23T02:20:20.795Z,97199.59
2023-01-23T02:21:25.473Z,97200.41
2023-01-23T02:22:46.380Z,97189.34
2023-01-23T02:24:09.537Z,97202.56
2023-01-23T02:25:36.329Z,97200.09
2023-01-23T02:26:44.124Z,97200.00
2023-01-23T02:27:45.694Z,97193.31
2023-01-23T02:28:51.638Z,97185.00
2023-01-23T02:29:56.253Z,97183.50
2023-01-23T02:30:57.833Z,97192.91
2023-01-23T02:31:59.610Z,97203.53
2023-01-23T02:33:19.523Z,97212.72
2023-01-23T02:34:22.381Z,97212.94
2023-01-23T02:35:30.758Z,97211.06
2023-01-23T02:36:34.973Z,97222.69
2023-01-23T02:37:41.108Z,97222.13
2023-01-23T02:39:06.902Z,97219.34
2023-01-23T02:40:09.371Z,97218.47
2023-01-23T02:41:13.797Z,97217.16
2023-01-23T02:42:15.516Z,97215.19
2023-01-23T02:43:21.331Z,97218.06
2023-01-23T02:44:29.345Z,97219.63
2023-01-23T02:45:31.308Z,97219.16
2023-01-23T02:46:32.938Z,97218.16
2023-01-23T02:47:34.593Z,97224.09
2023-01-23T02:48:37.500Z,97221.41
2023-01-23T02:49:40.343Z,97220.72
2023-01-23T02:50:43.439Z,97209.88
2023-01-23T02:51:44.940Z,97203.06
2023-01-23T02:52:47.209Z,97198.44
2023-01-23T02:53:49.475Z,97198.41
2023-01-23T02:54:51.153Z,97197.81
2023-01-23T02:55:52.703Z,97191.50
2023-01-23T02:56:54.244Z,97189.72
2023-01-23T02:58:19.322Z,97193.84
2023-01-23T02:59:39.471Z,97199.72
2023-01-23T03:00:43.455Z,97199.84
2023-01-23T03:01:45.118Z,97196.97
2023-01-23T03:02:51.085Z,97201.34
2023-01-23T03:03:53.525Z,97200.97
2023-01-23T03:04:55.074Z,97203.34
2023-01-23T03:05:59.227Z,97200.38
2023-01-23T03:07:00.788Z,97198.09
2023-01-23T03:08:02.338Z,97189.63
2023-01-23T03:09:07.997Z,97196.72
2023-01-23T03:10:11.128Z,97195.97
2023-01-23T03:11:12.669Z,97197.22
2023-01-23T03:12:15.452Z,97199.16
2023-01-23T03:13:17.030Z,97197.41
2023-01-23T03:14:21.182Z,97201.34
2023-01-23T03:15:22.703Z,97201.34
2023-01-23T03:16:24.336Z,97209.66
2023-01-23T03:17:26.031Z,97210.22
2023-01-23T03:18:27.735Z,97209.31
2023-01-23T03:19:29.271Z,97206.47
2023-01-23T03:20:37.591Z,97213.31
2023-01-23T03:21:40.525Z,97212.63
2023-01-23T03:22:42.221Z,97211.44
2023-01-23T03:23:46.646Z,97212.63
2023-01-23T03:24:48.250Z,97216.56
2023-01-23T03:25:58.473Z,97215.41
2023-01-23T03:27:00.116Z,97222.22
2023-01-23T03:28:01.723Z,97219.75
2023-01-23T03:29:21.900Z,97217.69
2023-01-23T03:30:25.587Z,97219.72
2023-01-23T03:31:27.141Z,97223.09
2023-01-23T03:32:29.398Z,97232.31
2023-01-23T03:33:31.041Z,97225.72
2023-01-23T03:34:32.997Z,97227.97
2023-01-23T03:35:34.567Z,97226.78
2023-01-23T03:36:37.434Z,97247.38
2023-01-23T03:37:39.026Z,97245.09
2023-01-23T03:39:00.814Z,97221.69
2023-01-23T03:40:22.178Z,97207.69
2023-01-23T03:41:26.450Z,97223.84
2023-01-23T03:42:28.081Z,97231.13
2023-01-23T03:43:33.314Z,97225.81
2023-01-23T03:44:34.932Z,97221.47
2023-01-23T03:45:36.550Z,97225.91
2023-01-23T03:46:38.096Z,97225.34
2023-01-23T03:47:39.604Z,97231.97
2023-01-23T03:48:41.225Z,97235.31
2023-01-23T03:49:42.764Z,97226.59
2023-01-23T03:50:44.355Z,97218.22
2023-01-23T03:51:46.026Z,97224.41
2023-01-23T03:52:47.723Z,97228.22
2023-01-23T03:53:49.281Z,97228.88
2023-01-23T03:54:51.258Z,97218.09
2023-01-23T03:55:52.836Z,97228.06
2023-01-23T03:56:54.909Z,97226.63
2023-01-23T03:57:56.437Z,97222.72
2023-01-23T03:58:58.969Z,97218.59
2023-01-23T04:00:00.761Z,97221.44
2023-01-23T04:01:06.261Z,97213.44
2023-01-23T04:02:08.005Z,97221.25
2023-01-23T04:03:09.614Z,97225.72
2023-01-23T04:04:11.221Z,97222.94
2023-01-23T04:05:12.759Z,97223.00
2023-01-23T04:06:14.292Z,97222.50
2023-01-23T04:07:15.853Z,97221.94
2023-01-23T04:08:17.420Z,97217.41
2023-01-23T04:09:19.015Z,97217.63
2023-01-23T04:10:20.904Z,97230.78
2023-01-23T04:11:22.809Z,97229.56
2023-01-23T04:12:24.328Z,97228.56
2023-01-23T04:13:25.883Z,97220.59
2023-01-23T04:14:30.528Z,97218.41
2023-01-23T04:15:33.425Z,97225.59
2023-01-23T04:16:35.123Z,97224.41
2023-01-23T04:17:36.787Z,97223.97
2023-01-23T04:18:39.152Z,97220.44
2023-01-23T04:19:40.667Z,97216.56
2023-01-23T04:20:42.174Z,97222.31
2023-01-23T04:21:43.746Z,97213.44
2023-01-23T04:22:45.317Z,97220.72
2023-01-23T04:23:47.166Z,97219.00
2023-01-23T04:24:48.968Z,97214.56
2023-01-23T04:25:51.521Z,97220.16
2023-01-23T04:26:53.838Z,97215.91
2023-01-23T04:27:55.377Z,97215.91
2023-01-23T04:28:56.900Z,97224.91
2023-01-23T04:29:58.531Z,97221.75
2023-01-23T04:31:01.545Z,97227.13
2023-01-23T04:32:03.475Z,97229.88
2023-01-23T04:33:05.146Z,97227.13
2023-01-23T04:34:06.669Z,97227.34
2023-01-23T04:35:08.429Z,97230.72
2023-01-23T04:36:11.226Z,97230.84
2023-01-23T04:37:12.818Z,97220.16
2023-01-23T04:38:14.341Z,97225.00
2023-01-23T04:39:15.832Z,97217.84
2023-01-23T04:40:18.815Z,97218.72
2023-01-23T04:41:26.682Z,97219.31
2023-01-23T04:42:28.222Z,97225.34
2023-01-23T04:43:30.644Z,97223.69
2023-01-23T04:44:32.182Z,97223.06
2023-01-23T04:45:33.752Z,97222.50
2023-01-23T04:46:35.467Z,97222.97
2023-01-23T04:47:37.623Z,97225.06
2023-01-23T04:48:39.225Z,97220.72
2023-01-23T04:49:40.809Z,97209.38
2023-01-23T04:50:42.364Z,97216.19
2023-01-23T04:51:44.530Z,97219.34
2023-01-23T04:52:46.125Z,97219.03
2023-01-23T04:53:47.742Z,97213.44
2023-01-23T04:54:49.305Z,97209.06
2023-01-23T04:55:50.848Z,97209.59
2023-01-23T04:56:52.475Z,97218.06
2023-01-23T04:57:54.639Z,97225.88
2023-01-23T04:58:56.216Z,97233.94
2023-01-23T04:59:59.562Z,97226.75
2023-01-23T05:01:06.372Z,97231.00
2023-01-23T05:02:07.963Z,97230.16
2023-01-23T05:03:09.508Z,97236.56
2023-01-23T05:04:11.103Z,97243.31
2023-01-23T05:05:12.815Z,97244.41
2023-01-23T05:06:14.375Z,97233.00
2023-01-23T05:07:16.235Z,97236.38
2023-01-23T05:08:17.980Z,97246.13
2023-01-23T05:09:19.508Z,97248.28
2023-01-23T05:10:21.305Z,97257.28
2023-01-23T05:11:23.191Z,97265.38
2023-01-23T05:12:24.750Z,97261.59
2023-01-23T05:13:26.301Z,97259.03
2023-01-23T05:14:27.874Z,97253.16
2023-01-23T05:15:32.856Z,97264.44
2023-01-23T05:16:34.596Z,97259.88
2023-01-23T05:17:36.122Z,97255.28
2023-01-23T05:18:37.822Z,97265.22
2023-01-23T05:19:39.384Z,97277.03
2023-01-23T05:20:41.132Z,97272.44
2023-01-23T05:21:42.830Z,97266.22
2023-01-23T05:22:52.648Z,97274.72
2023-01-23T05:23:54.379Z,97281.97
2023-01-23T05:24:55.935Z,97279.94
2023-01-23T05:25:57.538Z,97279.38
2023-01-23T05:26:59.112Z,97274.81
2023-01-23T05:28:00.799Z,97275.69
2023-01-23T05:29:02.862Z,97268.50
2023-01-23T05:30:04.836Z,97267.06
2023-01-23T05:31:06.452Z,97270.81
2023-01-23T05:32:08.380Z,97288.94
2023-01-23T05:33:09.933Z,97286.34
2023-01-23T05:34:11.561Z,97282.03
2023-01-23T05:35:13.743Z,97289.78
2023-01-23T05:36:17.663Z,97276.94
2023-01-23T05:37:20.588Z,97269.94
2023-01-23T05:38:22.122Z,97272.31
2023-01-23T05:39:23.743Z,97277.03
2023-01-23T05:40:25.524Z,97283.38
2023-01-23T05:41:27.047Z,97285.41
2023-01-23T05:42:28.696Z,97290.44
2023-01-23T05:43:30.311Z,97283.84
2023-01-23T05:44:32.034Z,97282.25
2023-01-23T05:45:34.839Z,97274.69
2023-01-23T05:46:36.472Z,97276.06
2023-01-23T05:47:38.460Z,97281.88
2023-01-23T05:48:40.057Z,97290.94
2023-01-23T05:49:41.789Z,97290.59
2023-01-23T05:50:43.371Z,97281.63
2023-01-23T05:51:44.916Z,97285.78
2023-01-23T05:52:46.708Z,97285.19
2023-01-23T05:53:48.295Z,97275.53
2023-01-23T05:54:50.597Z,97273.97
2023-01-23T05:55:52.165Z,97282.38
2023-01-23T05:56:53.720Z,97285.09
2023-01-23T05:57:55.328Z,97284.47
2023-01-23T05:58:56.889Z,97287.50
2023-01-23T05:59:58.437Z,97287.94
2023-01-23T06:01:02.602Z,97289.34
2023-01-23T06:02:04.155Z,97298.59
2023-01-23T06:03:06.645Z,97293.47
2023-01-23T06:04:08.185Z,97293.88
2023-01-23T06:05:09.811Z,97287.50
2023-01-23T06:06:11.399Z,97287.97
2023-01-23T06:07:14.418Z,97296.03
2023-01-23T06:08:15.925Z,97290.59
2023-01-23T06:09:17.518Z,97286.97
2023-01-23T06:10:19.514Z,97296.56
2023-01-23T06:11:21.193Z,97295.47
2023-01-23T06:12:22.932Z,97303.13
2023-01-23T06:13:25.579Z,97300.56
2023-01-23T06:14:27.100Z,97306.88
2023-01-23T06:15:28.700Z,97302.66
2023-01-23T06:16:30.247Z,97305.88
2023-01-23T06:17:31.843Z,97297.81
2023-01-23T06:18:33.572Z,97301.97
2023-01-23T06:19:35.234Z,97298.63
2023-01-23T06:20:36.832Z,97298.44
2023-01-23T06:21:38.797Z,97300.44
2023-01-23T06:22:40.440Z,97295.50
2023-01-23T06:23:41.995Z,97298.16
2023-01-23T06:24:43.551Z,97288.81
2023-01-23T06:25:45.304Z,97284.19
2023-01-23T06:26:46.908Z,97292.66
2023-01-23T06:27:48.522Z,97299.09
2023-01-23T06:28:50.095Z,97300.66
2023-01-23T06:29:51.596Z,97302.13
2023-01-23T06:30:53.268Z,97307.75
2023-01-23T06:31:54.883Z,97316.25
2023-01-23T06:32:56.642Z,97304.91
2023-01-23T06:33:59.105Z,97310.13
2023-01-23T06:35:00.837Z,97302.66
2023-01-23T06:36:05.435Z,97301.25
2023-01-23T06:37:06.983Z,97309.88
2023-01-23T06:38:08.578Z,97309.50
2023-01-23T06:39:13.224Z,97315.03
2023-01-23T06:40:15.320Z,97318.59
2023-01-23T06:41:19.780Z,97323.72
2023-01-23T06:42:21.516Z,97323.53
2023-01-23T06:43:24.002Z,97319.22
2023-01-23T06:44:25.673Z,97317.03
2023-01-23T06:45:27.417Z,97316.94
2023-01-23T06:46:29.051Z,97323.78
2023-01-23T06:47:30.585Z,97324.75
2023-01-23T06:48:32.151Z,97332.66
2023-01-23T06:49:33.810Z,97326.16
2023-01-23T06:50:35.312Z,97333.44
2023-01-23T06:51:36.932Z,97333.94
2023-01-23T06:52:38.479Z,97336.59
2023-01-23T06:53:40.088Z,97334.94
2023-01-23T06:54:41.644Z,97338.88
2023-01-23T06:55:43.190Z,97341.75
2023-01-23T06:56:44.862Z,97343.81
2023-01-23T06:57:46.356Z,97338.97
2023-01-23T06:58:48.862Z,97338.97
2023-01-23T06:59:50.675Z,97350.44
2023-01-23T07:00:52.192Z,97345.50
2023-01-23T07:01:53.773Z,97352.00
2023-01-23T07:02:58.979Z,97346.25
2023-01-23T07:04:01.041Z,97349.19
2023-01-23T07:05:02.553Z,97360.03
2023-01-23T07:06:07.083Z,97354.28
2023-01-23T07:07:08.677Z,97350.19
2023-01-23T07:08:10.382Z,97353.47
2023-01-23T07:09:12.610Z,97355.16
2023-01-23T07:10:14.367Z,97352.59
2023-01-23T07:11:16.053Z,97345.28
2023-01-23T07:12:17.661Z,97335.81
2023-01-23T07:13:19.231Z,97335.81
2023-01-23T07:14:20.765Z,97337.50
2023-01-23T07:15:22.343Z,97353.19
2023-01-23T07:16:25.165Z,97368.53
2023-01-23T07:17:26.952Z,97371.00
2023-01-23T07:18:30.365Z,97374.09
2023-01-23T07:19:31.944Z,97357.97
2023-01-23T07:20:33.632Z,97350.31
2023-01-23T07:21:35.260Z,97347.50
2023-01-23T07:22:36.832Z,97354.38
2023-01-23T07:23:38.366Z,97368.53
2023-01-23T07:24:40.028Z,97373.66
2023-01-23T07:25:42.264Z,97366.53
2023-01-23T07:26:43.882Z,97365.75
2023-01-23T07:27:45.439Z,97358.13
2023-01-23T07:28:47.012Z,97349.63
2023-01-23T07:29:48.770Z,97346.81
2023-01-23T07:30:50.815Z,97361.38
2023-01-23T07:31:52.892Z,97370.19
2023-01-23T07:32:55.186Z,97365.34
2023-01-23T07:33:56.777Z,97360.28
2023-01-23T07:34:58.331Z,97365.00
2023-01-23T07:36:00.114Z,97365.72
2023-01-23T07:37:01.940Z,97371.19
2023-01-23T07:38:03.507Z,97370.78
2023-01-23T07:39:05.017Z,97371.19
2023-01-23T07:40:07.136Z,97367.41
2023-01-23T07:41:09.197Z,97359.88
2023-01-23T07:42:10.848Z,97357.91
2023-01-23T07:43:12.571Z,97355.97
2023-01-23T07:44:17.605Z,97365.03
2023-01-23T07:45:19.190Z,97361.69
2023-01-23T07:46:25.137Z,97367.53
2023-01-23T07:47:26.793Z,97368.41
2023-01-23T07:48:29.462Z,97366.63
2023-01-23T07:49:31.028Z,97360.34
2023-01-23T07:50:32.624Z,97365.06
2023-01-23T07:51:34.838Z,97377.59
2023-01-23T07:52:36.567Z,97376.53
2023-01-23T07:53:38.157Z,97360.97
2023-01-23T07:54:39.686Z,97355.47
2023-01-23T07:55:41.436Z,97351.72
2023-01-23T07:56:43.117Z,97358.63
2023-01-23T07:57:44.802Z,97361.72
2023-01-23T07:58:50.117Z,97359.56
2023-01-23T07:59:51.648Z,97370.53
2023-01-23T08:00:53.289Z,97366.19
2023-01-23T08:01:54.875Z,97372.44
2023-01-23T08:02:57.030Z,97362.69
2023-01-23T08:03:58.811Z,97376.78
2023-01-23T08:05:00.461Z,97376.09
2023-01-23T08:06:02.005Z,97375.97
2023-01-23T08:07:04.022Z,97380.59
2023-01-23T08:08:13.476Z,97389.09
2023-01-23T08:09:15.549Z,97391.09
2023-01-23T08:10:17.381Z,97403.00
2023-01-23T08:11:19.559Z,97411.91
2023-01-23T08:12:21.155Z,97403.81
2023-01-23T08:13:22.706Z,97405.53
2023-01-23T08:14:24.241Z,97398.75
2023-01-23T08:15:25.782Z,97398.06
2023-01-23T08:16:27.998Z,97400.88
2023-01-23T08:17:29.627Z,97403.72
2023-01-23T08:18:31.981Z,97401.31
2023-01-23T08:19:33.509Z,97401.84
2023-01-23T08:20:35.057Z,97404.56
2023-01-23T08:21:36.639Z,97407.72
2023-01-23T08:22:40.836Z,97404.56
2023-01-23T08:23:42.801Z,97406.72
2023-01-23T08:24:44.650Z,97411.84
2023-01-23T08:25:46.310Z,97412.28
2023-01-23T08:26:48.043Z,97416.16
2023-01-23T08:27:49.710Z,97410.34
2023-01-23T08:28:51.245Z,97407.03
2023-01-23T08:29:52.848Z,97404.72
2023-01-23T08:30:55.539Z,97412.41
2023-01-23T08:31:57.416Z,97414.94
2023-01-23T08:33:00.042Z,97411.22
2023-01-23T08:34:01.825Z,97413.84
2023-01-23T08:35:04.940Z,97410.09
2023-01-23T08:36:10.941Z,97415.22
2023-01-23T08:37:12.909Z,97418.75
2023-01-23T08:38:14.569Z,97408.16
2023-01-23T08:39:20.246Z,97415.28
2023-01-23T08:40:22.243Z,97417.28
2023-01-23T08:41:24.225Z,97416.09
2023-01-23T08:42:26.033Z,97429.56
2023-01-23T08:43:28.275Z,97424.06
2023-01-23T08:44:31.334Z,97416.38
2023-01-23T08:45:33.144Z,97407.28
2023-01-23T08:46:34.820Z,97398.63
2023-01-23T08:47:36.979Z,97401.78
2023-01-23T08:48:39.137Z,97403.97
2023-01-23T08:49:40.702Z,97392.19
2023-01-23T08:50:42.640Z,97396.44
2023-01-23T08:51:44.228Z,97395.66
2023-01-23T08:52:45.824Z,97408.50
2023-01-23T08:53:47.508Z,97412.81
2023-01-23T08:54:49.088Z,97422.03
2023-01-23T08:55:50.777Z,97424.09
2023-01-23T08:56:52.298Z,97419.16
2023-01-23T08:57:53.974Z,97416.59
2023-01-23T08:58:55.583Z,97407.22
2023-01-23T08:59:57.132Z,97413.66
2023-01-23T09:00:58.948Z,97406.72
2023-01-23T09:02:00.703Z,97406.81
2023-01-23T09:03:03.541Z,97407.44
2023-01-23T09:04:05.277Z,97407.53
2023-01-23T09:05:07.215Z,97407.63
2023-01-23T09:06:11.057Z,97407.09
2023-01-23T09:07:12.552Z,97397.25
2023-01-23T09:08:14.460Z,97396.25
2023-01-23T09:09:16.032Z,97391.50
2023-01-23T09:10:17.725Z,97399.00
2023-01-23T09:11:20.002Z,97397.22
2023-01-23T09:12:21.830Z,97394.25
2023-01-23T09:13:23.329Z,97398.91
2023-01-23T09:14:24.872Z,97399.38
2023-01-23T09:15:26.613Z,97401.47
2023-01-23T09:16:28.204Z,97396.63
2023-01-23T09:17:29.843Z,97399.81
2023-01-23T09:18:31.706Z,97400.78
2023-01-23T09:19:33.434Z,97392.50
2023-01-23T09:20:34.984Z,97390.91
2023-01-23T09:21:36.777Z,97390.72
2023-01-23T09:22:38.390Z,97383.22
2023-01-23T09:23:40.086Z,97378.84
2023-01-23T09:24:41.646Z,97380.44
2023-01-23T09:25:43.156Z,97384.19
2023-01-23T09:26:44.727Z,97382.03
2023-01-23T09:27:46.267Z,97386.38
2023-01-23T09:28:47.834Z,97384.41
2023-01-23T09:29:49.913Z,97385.91
2023-01-23T09:30:51.512Z,97386.78
2023-01-23T09:31:53.188Z,97388.16
2023-01-23T09:32:54.772Z,97386.56
2023-01-23T09:33:56.394Z,97383.31
2023-01-23T09:34:57.954Z,97387.47
2023-01-23T09:35:59.491Z,97395.88
2023-01-23T09:37:01.056Z,97390.44
2023-01-23T09:38:07.104Z,97400.72
2023-01-23T09:39:09.009Z,97396.06
2023-01-23T09:40:17.337Z,97398.00
2023-01-23T09:41:25.639Z,97401.59
2023-01-23T09:42:33.934Z,97399.00
2023-01-23T09:43:44.930Z,97402.63
2023-01-23T09:44:57.551Z,97403.31
2023-01-23T09:46:13.042Z,97406.06
2023-01-23T09:47:26.911Z,97392.38
2023-01-23T09:48:37.657Z,97389.28
2023-01-23T09:49:57.260Z,97389.56
2023-01-23T09:51:07.731Z,97381.03
2023-01-23T09:52:16.417Z,97386.53
2023-01-23T09:53:23.055Z,97387.88
2023-01-23T09:55:04.276Z,97387.75
2023-01-23T09:56:32.197Z,97392.59
2023-01-23T09:57:39.243Z,97390.44
2023-01-23T09:58:47.585Z,97394.78
2023-01-23T10:00:01.076Z,97387.75
2023-01-23T10:01:03.101Z,97380.41
2023-01-23T10:02:25.744Z,97377.28
2023-01-23T10:03:31.592Z,97373.06
2023-01-23T10:04:33.396Z,97378.47
2023-01-23T10:05:43.942Z,97375.53
2023-01-23T10:06:54.229Z,97377.47
2023-01-23T10:08:07.822Z,97380.28
2023-01-23T10:09:27.883Z,97377.72
2023-01-23T10:10:57.539Z,97383.09
2023-01-23T10:12:11.309Z,97382.19
2023-01-23T10:13:23.014Z,97382.53
2023-01-23T10:14:43.125Z,97375.66
2023-01-23T10:16:03.562Z,97372.41
2023-01-23T10:17:14.148Z,97364.72
2023-01-23T10:18:48.240Z,97361.94
2023-01-23T10:20:02.697Z,97360.69
2023-01-23T10:21:10.235Z,97353.69
2023-01-23T10:22:34.512Z,97360.94
2023-01-23T10:24:05.283Z,97363.66
2023-01-23T10:25:19.016Z,97374.53
2023-01-23T10:26:31.619Z,97371.84
2023-01-23T10:27:47.688Z,97381.38
2023-01-23T10:28:54.864Z,97380.59
2023-01-23T10:30:03.995Z,97375.88
2023-01-23T10:31:12.423Z,97371.47
2023-01-23T10:32:26.308Z,97360.78
2023-01-23T10:33:39.519Z,97366.00
2023-01-23T10:34:58.652Z,97359.72
2023-01-23T10:36:12.559Z,97368.09
2023-01-23T10:37:37.863Z,97364.44
2023-01-23T10:39:02.805Z,97359.63
2023-01-23T10:40:15.395Z,97348.78
2023-01-23T10:41:25.704Z,97346.47
2023-01-23T10:42:28.268Z,97351.03
2023-01-23T10:43:29.806Z,97343.81
2023-01-23T10:44:31.346Z,97337.72
2023-01-23T10:45:32.978Z,97334.91
2023-01-23T10:46:39.521Z,97330.00
2023-01-23T10:47:50.071Z,97341.00
2023-01-23T10:48:56.205Z,97345.88
2023-01-23T10:49:57.814Z,97346.97
2023-01-23T10:51:00.217Z,97352.69
2023-01-23T10:52:02.281Z,97356.78
2023-01-23T10:53:18.098Z,97358.06
2023-01-23T10:54:31.841Z,97356.47
2023-01-23T10:55:34.049Z,97358.34
2023-01-23T10:56:39.440Z,97346.41
2023-01-23T10:57:48.468Z,97358.84
2023-01-23T10:58:51.327Z,97361.81
2023-01-23T10:59:58.226Z,97357.41
2023-01-23T11:01:00.427Z,97362.13
2023-01-23T11:02:14.439Z,97358.22
2023-01-23T11:03:21.997Z,97348.28
2023-01-23T11:04:26.646Z,97348.94
2023-01-23T11:05:51.152Z,97349.72
2023-01-23T11:07:05.257Z,97342.50
2023-01-23T11:08:28.130Z,97350.22
2023-01-23T11:09:31.267Z,97349.44
2023-01-23T11:10:33.088Z,97348.97
2023-01-23T11:11:36.244Z,97345.19
2023-01-23T11:12:50.171Z,97343.63
2023-01-23T11:14:14.366Z,97342.69
2023-01-23T11:15:48.691Z,97335.59
2023-01-23T11:17:17.222Z,97337.66
2023-01-23T11:18:31.080Z,97342.06
2023-01-23T11:19:33.374Z,97336.09
2023-01-23T11:20:42.868Z,97342.06
2023-01-23T11:21:53.687Z,97330.22
2023-01-23T11:23:17.158Z,97336.69
2023-01-23T11:24:24.781Z,97332.28
2023-01-23T11:25:35.576Z,97335.44
2023-01-23T11:26:37.989Z,97329.78
2023-01-23T11:27:39.559Z,97322.19
2023-01-23T11:28:49.547Z,97334.00
2023-01-23T11:30:09.117Z,97329.13
2023-01-23T11:31:22.273Z,97319.81
2023-01-23T11:32:24.907Z,97328.16
2023-01-23T11:33:26.491Z,97326.59
2023-01-23T11:34:35.473Z,97329.13
2023-01-23T11:35:52.384Z,97326.91
2023-01-23T11:37:11.550Z,97319.69
2023-01-23T11:38:27.167Z,97328.81
2023-01-23T11:39:49.606Z,97325.03
2023-01-23T11:40:51.744Z,97323.78
2023-01-23T11:41:53.431Z,97317.94
2023-01-23T11:42:55.643Z,97312.44
2023-01-23T11:43:57.441Z,97312.09
2023-01-23T11:44:59.765Z,97313.69
2023-01-23T11:46:35.393Z,97316.34
2023-01-23T11:48:01.442Z,97315.72
2023-01-23T11:49:27.834Z,97315.56
2023-01-23T11:51:00.908Z,97317.63
2023-01-23T11:52:19.640Z,97310.69
2023-01-23T11:53:22.510Z,97314.31
2023-01-23T11:54:47.754Z,97309.59
2023-01-23T11:55:57.856Z,97306.75
2023-01-23T11:57:03.233Z,97303.78
2023-01-23T11:58:22.408Z,97299.38
2023-01-23T11:59:34.603Z,97309.91
2023-01-23T12:00:44.005Z,97311.50
2023-01-23T12:02:24.080Z,97305.94
2023-01-23T12:03:43.683Z,97312.75
2023-01-23T12:05:05.854Z,97317.47
2023-01-23T12:06:29.272Z,97316.84
2023-01-23T12:07:54.139Z,97320.31
2023-01-23T12:09:15.868Z,97317.81
2023-01-23T12:10:38.669Z,97316.22
2023-01-23T12:12:02.711Z,97320.94
2023-01-23T12:13:33.063Z,97323.91
2023-01-23T12:14:53.335Z,97328.34
2023-01-23T12:16:08.144Z,97321.41
2023-01-23T12:17:32.781Z,97324.88
2023-01-23T12:18:56.495Z,97314.97
2023-01-23T12:20:17.804Z,97316.22
2023-01-23T12:21:29.265Z,97313.69
2023-01-23T12:22:52.732Z,97320.28
2023-01-23T12:24:03.053Z,97323.44
2023-01-23T12:25:21.233Z,97310.53
2023-01-23T12:26:26.944Z,97320.16
2023-01-23T12:27:38.732Z,97327.72
2023-01-23T12:28:52.475Z,97320.47
2023-01-23T12:30:08.939Z,97322.81
2023-01-23T12:31:27.733Z,97318.88
2023-01-23T12:32:53.970Z,97318.69
2023-01-23T12:34:08.729Z,97313.97
2023-01-23T12:35:27.889Z,97311.78
2023-01-23T12:36:29.463Z,97322.97
2023-01-23T12:37:52.632Z,97311.50
2023-01-23T12:38:59.740Z,97308.97
2023-01-23T12:40:12.773Z,97306.44
2023-01-23T12:41:40.297Z,97303.94
2023-01-23T12:42:53.719Z,97307.06
2023-01-23T12:44:16.589Z,97301.25
2023-01-23T12:45:23.187Z,97305.16
2023-01-23T12:46:39.788Z,97302.63
2023-01-23T12:47:48.708Z,97303.63